Airfield :
LOGIN :

Register | Disclaimer

   EN    FR    IT 

 










Legend :    VFR   Marginal VFR   IFR   Intensive IFR   Very Intensive IFR
Visi :
Ceiling :
>= 8 km
>= 3000ft
5 to 8 km
1000 to 3000 ft
1500m to 5 km
500 to 1000 ft
800 to 1500m
200 to 500 ft
< 800m
< 200 ft
Symbols :   Thunderstorms  Fog  Heavy snow  Heavy precipitations  Wind > 20 kt
SIGMETs :     Misc.  Thunderstorms  Icing  Turbulence  Mountain Waves  Volcanic Ashes






- Airport Elevation : 124 ft
- IATA code : RNS


LFRN - Rennes

CURRENT METAR :
  • 250830Z AUTO 08006KT 030V110 CAVOK 18/10 Q1034 NOSIG

EXPIRED METARs :
  • 250800Z AUTO 08007KT 050V150 CAVOK 17/10 Q1034 NOSIG
  • 250730Z AUTO 08005KT 050V120 CAVOK 16/09 Q1034 NOSIG
  • 250700Z AUTO 05004KT 020V080 CAVOK 15/09 Q1034 NOSIG
  • 250630Z AUTO VRB03KT CAVOK 13/10 Q1034 NOSIG
  • 250600Z AUTO 34003KT CAVOK 12/10 Q1034 TEMPO 3000 BR

TAF TAF LFRN
Valid from the 25 at 06:00 until the 26 at 06:00 UTC


250500Z 2506/2606 VRB05KT CAVOK
PROB30
TEMPO 2506/2507 3000 BR
BECMG 2511/2513 05010KT
BECMG 2516/2518 35010KT
BECMG 2522/2524 VRB05KT
PROB30
TEMPO 2602/2606 3000 BR
ATIS : +33 2 99 67 72 50



MET'MAP, your aeronautical weather chart ! - Copyright ORBIFLY December 2007 - Disclaimer

ORBIFLY MET'MAP TEAM :

Programming & Development : Alexandra Zaïnal
Concept & original design : Baudouin d'Aumeries
Assistance for programming : Marc-Olivier Méhu
Technical & hardware support : Manuel Goepfert

Contact : metmap@orbifly.com




SOURCES & CREDITS :

   NOAA